sensor_id;sensor_type;location;lat;lon;timestamp;P1;durP1;ratioP1;P2;durP2;ratioP2
39750;SDS011;37579;51.074;17.004;2023-04-25T00:01:31;3.08;;;1.20;;
39750;SDS011;37579;51.074;17.004;2023-04-25T00:04:00;2.83;;;1.33;;
39750;SDS011;37579;51.074;17.004;2023-04-25T00:06:26;2.25;;;1.23;;
39750;SDS011;37579;51.074;17.004;2023-04-25T00:08:52;2.00;;;1.20;;
39750;SDS011;37579;51.074;17.004;2023-04-25T00:11:18;2.55;;;1.45;;
39750;SDS011;37579;51.074;17.004;2023-04-25T00:13:44;1.90;;;1.25;;
39750;SDS011;37579;51.074;17.004;2023-04-25T00:16:11;1.52;;;0.90;;
39750;SDS011;37579;51.074;17.004;2023-04-25T00:18:41;2.00;;;1.10;;
39750;SDS011;37579;51.074;17.004;2023-04-25T00:21:08;1.83;;;0.70;;
39750;SDS011;37579;51.074;17.004;2023-04-25T00:23:34;2.78;;;0.90;;
39750;SDS011;37579;51.074;17.004;2023-04-25T00:26:01;1.63;;;0.93;;
39750;SDS011;37579;51.074;17.004;2023-04-25T00:28:27;1.42;;;1.13;;
39750;SDS011;37579;51.074;17.004;2023-04-25T00:30:53;2.30;;;1.10;;
39750;SDS011;37579;51.074;17.004;2023-04-25T00:33:19;1.58;;;0.82;;
39750;SDS011;37579;51.074;17.004;2023-04-25T00:35:45;1.55;;;0.98;;
39750;SDS011;37579;51.074;17.004;2023-04-25T00:38:11;2.10;;;1.02;;
39750;SDS011;37579;51.074;17.004;2023-04-25T00:40:37;1.70;;;0.90;;
39750;SDS011;37579;51.074;17.004;2023-04-25T00:43:04;2.42;;;1.20;;
39750;SDS011;37579;51.074;17.004;2023-04-25T00:45:30;2.10;;;1.08;;
39750;SDS011;37579;51.074;17.004;2023-04-25T00:47:56;1.85;;;1.27;;
39750;SDS011;37579;51.074;17.004;2023-04-25T00:50:23;2.10;;;1.13;;
39750;SDS011;37579;51.074;17.004;2023-04-25T00:52:49;1.15;;;0.88;;
39750;SDS011;37579;51.074;17.004;2023-04-25T00:55:16;1.55;;;1.00;;
39750;SDS011;37579;51.074;17.004;2023-04-25T00:57:42;1.30;;;0.80;;
39750;SDS011;37579;51.074;17.004;2023-04-25T01:02:52;4.07;;;0.90;;
39750;SDS011;37579;51.074;17.004;2023-04-25T01:05:19;2.05;;;1.13;;
39750;SDS011;37579;51.074;17.004;2023-04-25T01:07:44;1.67;;;0.80;;
39750;SDS011;37579;51.074;17.004;2023-04-25T01:10:10;1.35;;;0.85;;
39750;SDS011;37579;51.074;17.004;2023-04-25T01:12:36;1.60;;;0.95;;
39750;SDS011;37579;51.074;17.004;2023-04-25T01:15:02;1.63;;;0.90;;
39750;SDS011;37579;51.074;17.004;2023-04-25T01:17:28;1.83;;;1.13;;
39750;SDS011;37579;51.074;17.004;2023-04-25T01:19:54;1.08;;;0.70;;
39750;SDS011;37579;51.074;17.004;2023-04-25T01:22:20;1.33;;;0.70;;
39750;SDS011;37579;51.074;17.004;2023-04-25T01:24:46;1.25;;;0.90;;
39750;SDS011;37579;51.074;17.004;2023-04-25T01:27:13;1.80;;;0.98;;
39750;SDS011;37579;51.074;17.004;2023-04-25T01:29:39;1.30;;;0.80;;
39750;SDS011;37579;51.074;17.004;2023-04-25T01:32:05;2.08;;;0.88;;
39750;SDS011;37579;51.074;17.004;2023-04-25T01:34:31;1.27;;;0.80;;
39750;SDS011;37579;51.074;17.004;2023-04-25T01:36:59;1.10;;;0.65;;
39750;SDS011;37579;51.074;17.004;2023-04-25T01:39:27;0.95;;;0.70;;
39750;SDS011;37579;51.074;17.004;2023-04-25T01:41:53;1.52;;;0.80;;
39750;SDS011;37579;51.074;17.004;2023-04-25T01:44:19;1.50;;;0.73;;
39750;SDS011;37579;51.074;17.004;2023-04-25T01:46:45;1.30;;;0.85;;
39750;SDS011;37579;51.074;17.004;2023-04-25T01:49:11;1.10;;;0.85;;
39750;SDS011;37579;51.074;17.004;2023-04-25T01:51:38;1.52;;;0.90;;
39750;SDS011;37579;51.074;17.004;2023-04-25T01:54:04;0.95;;;0.75;;
39750;SDS011;37579;51.074;17.004;2023-04-25T01:56:31;1.33;;;0.80;;
39750;SDS011;37579;51.074;17.004;2023-04-25T01:58:58;1.20;;;0.70;;
39750;SDS011;37579;51.074;17.004;2023-04-25T02:01:45;0.98;;;0.80;;
39750;SDS011;37579;51.074;17.004;2023-04-25T02:04:19;1.65;;;0.70;;
39750;SDS011;37579;51.074;17.004;2023-04-25T02:06:45;1.08;;;0.68;;
39750;SDS011;37579;51.074;17.004;2023-04-25T02:09:11;0.95;;;0.70;;
39750;SDS011;37579;51.074;17.004;2023-04-25T02:11:42;1.60;;;0.70;;
39750;SDS011;37579;51.074;17.004;2023-04-25T02:14:27;1.15;;;0.82;;
39750;SDS011;37579;51.074;17.004;2023-04-25T02:17:08;0.90;;;0.52;;
39750;SDS011;37579;51.074;17.004;2023-04-25T02:19:34;1.63;;;0.80;;
39750;SDS011;37579;51.074;17.004;2023-04-25T02:21:59;1.20;;;0.80;;
39750;SDS011;37579;51.074;17.004;2023-04-25T02:24:25;1.00;;;0.73;;
39750;SDS011;37579;51.074;17.004;2023-04-25T02:26:54;1.45;;;0.70;;
39750;SDS011;37579;51.074;17.004;2023-04-25T02:29:23;1.13;;;0.60;;
39750;SDS011;37579;51.074;17.004;2023-04-25T02:31:48;1.30;;;0.50;;
39750;SDS011;37579;51.074;17.004;2023-04-25T02:34:16;1.13;;;0.57;;
39750;SDS011;37579;51.074;17.004;2023-04-25T02:36:42;1.23;;;0.80;;
39750;SDS011;37579;51.074;17.004;2023-04-25T02:39:07;1.00;;;0.60;;
39750;SDS011;37579;51.074;17.004;2023-04-25T02:41:33;3.20;;;0.80;;
39750;SDS011;37579;51.074;17.004;2023-04-25T02:43:59;0.77;;;0.70;;
39750;SDS011;37579;51.074;17.004;2023-04-25T02:46:25;0.90;;;0.65;;
39750;SDS011;37579;51.074;17.004;2023-04-25T02:48:51;1.50;;;0.73;;
39750;SDS011;37579;51.074;17.004;2023-04-25T02:51:16;0.70;;;0.50;;
39750;SDS011;37579;51.074;17.004;2023-04-25T02:53:42;1.25;;;0.63;;
39750;SDS011;37579;51.074;17.004;2023-04-25T02:56:08;0.90;;;0.57;;
39750;SDS011;37579;51.074;17.004;2023-04-25T02:58:34;0.85;;;0.60;;
39750;SDS011;37579;51.074;17.004;2023-04-25T03:01:00;2.03;;;0.60;;
39750;SDS011;37579;51.074;17.004;2023-04-25T03:03:26;1.20;;;0.70;;
39750;SDS011;37579;51.074;17.004;2023-04-25T03:05:52;0.85;;;0.55;;
39750;SDS011;37579;51.074;17.004;2023-04-25T03:08:22;1.52;;;0.80;;
39750;SDS011;37579;51.074;17.004;2023-04-25T03:10:50;1.10;;;0.60;;
39750;SDS011;37579;51.074;17.004;2023-04-25T03:13:17;1.08;;;0.80;;
39750;SDS011;37579;51.074;17.004;2023-04-25T03:15:43;1.67;;;0.57;;
39750;SDS011;37579;51.074;17.004;2023-04-25T03:18:09;0.80;;;0.60;;
39750;SDS011;37579;51.074;17.004;2023-04-25T03:20:35;0.82;;;0.52;;
39750;SDS011;37579;51.074;17.004;2023-04-25T03:23:02;0.93;;;0.43;;
39750;SDS011;37579;51.074;17.004;2023-04-25T03:25:28;0.85;;;0.55;;
39750;SDS011;37579;51.074;17.004;2023-04-25T03:27:54;1.00;;;0.60;;
39750;SDS011;37579;51.074;17.004;2023-04-25T03:30:21;1.38;;;0.70;;
39750;SDS011;37579;51.074;17.004;2023-04-25T03:32:47;1.25;;;0.60;;
39750;SDS011;37579;51.074;17.004;2023-04-25T03:35:15;1.27;;;0.77;;
39750;SDS011;37579;51.074;17.004;2023-04-25T03:37:41;1.52;;;0.50;;
39750;SDS011;37579;51.074;17.004;2023-04-25T03:40:12;0.82;;;0.40;;
39750;SDS011;37579;51.074;17.004;2023-04-25T03:42:56;2.35;;;0.43;;
39750;SDS011;37579;51.074;17.004;2023-04-25T03:45:22;0.70;;;0.50;;
39750;SDS011;37579;51.074;17.004;2023-04-25T03:47:48;0.70;;;0.45;;
39750;SDS011;37579;51.074;17.004;2023-04-25T03:50:14;0.90;;;0.50;;
39750;SDS011;37579;51.074;17.004;2023-04-25T03:52:40;1.00;;;0.40;;
39750;SDS011;37579;51.074;17.004;2023-04-25T03:55:06;0.70;;;0.50;;
39750;SDS011;37579;51.074;17.004;2023-04-25T03:57:32;1.02;;;0.50;;
39750;SDS011;37579;51.074;17.004;2023-04-25T03:59:58;0.85;;;0.40;;
39750;SDS011;37579;51.074;17.004;2023-04-25T04:02:26;0.60;;;0.50;;
39750;SDS011;37579;51.074;17.004;2023-04-25T04:04:52;0.57;;;0.43;;
39750;SDS011;37579;51.074;17.004;2023-04-25T04:07:18;1.02;;;0.50;;
39750;SDS011;37579;51.074;17.004;2023-04-25T04:09:46;1.00;;;0.68;;
39750;SDS011;37579;51.074;17.004;2023-04-25T04:12:18;1.08;;;0.50;;
39750;SDS011;37579;51.074;17.004;2023-04-25T04:14:45;1.00;;;0.50;;
39750;SDS011;37579;51.074;17.004;2023-04-25T04:17:10;0.88;;;0.43;;
39750;SDS011;37579;51.074;17.004;2023-04-25T04:19:36;1.27;;;0.60;;
39750;SDS011;37579;51.074;17.004;2023-04-25T04:22:11;0.50;;;0.35;;
39750;SDS011;37579;51.074;17.004;2023-04-25T04:24:37;1.00;;;0.45;;
39750;SDS011;37579;51.074;17.004;2023-04-25T04:27:06;0.73;;;0.40;;
39750;SDS011;37579;51.074;17.004;2023-04-25T04:29:37;0.77;;;0.40;;
39750;SDS011;37579;51.074;17.004;2023-04-25T04:32:29;1.05;;;0.52;;
39750;SDS011;37579;51.074;17.004;2023-04-25T04:34:55;0.88;;;0.50;;
39750;SDS011;37579;51.074;17.004;2023-04-25T04:37:23;0.95;;;0.50;;
39750;SDS011;37579;51.074;17.004;2023-04-25T04:39:50;0.65;;;0.30;;
39750;SDS011;37579;51.074;17.004;2023-04-25T04:42:38;1.08;;;0.43;;
39750;SDS011;37579;51.074;17.004;2023-04-25T04:45:33;1.00;;;0.50;;
39750;SDS011;37579;51.074;17.004;2023-04-25T04:48:10;0.75;;;0.55;;
39750;SDS011;37579;51.074;17.004;2023-04-25T04:50:55;0.52;;;0.43;;
39750;SDS011;37579;51.074;17.004;2023-04-25T04:53:42;0.70;;;0.40;;
39750;SDS011;37579;51.074;17.004;2023-04-25T04:56:26;0.82;;;0.50;;
39750;SDS011;37579;51.074;17.004;2023-04-25T04:59:04;1.13;;;0.57;;
39750;SDS011;37579;51.074;17.004;2023-04-25T05:01:59;2.63;;;0.40;;
39750;SDS011;37579;51.074;17.004;2023-04-25T05:04:43;1.10;;;0.40;;
39750;SDS011;37579;51.074;17.004;2023-04-25T05:07:30;0.90;;;0.50;;
39750;SDS011;37579;51.074;17.004;2023-04-25T05:10:07;1.42;;;0.60;;
39750;SDS011;37579;51.074;17.004;2023-04-25T05:12:53;2.55;;;0.68;;
39750;SDS011;37579;51.074;17.004;2023-04-25T05:15:42;0.60;;;0.40;;
39750;SDS011;37579;51.074;17.004;2023-04-25T05:18:26;1.50;;;0.55;;
39750;SDS011;37579;51.074;17.004;2023-04-25T05:21:04;2.03;;;0.40;;
39750;SDS011;37579;51.074;17.004;2023-04-25T05:24:05;1.05;;;0.47;;
39750;SDS011;37579;51.074;17.004;2023-04-25T05:26:50;1.20;;;0.55;;
39750;SDS011;37579;51.074;17.004;2023-04-25T05:29:18;0.75;;;0.40;;
39750;SDS011;37579;51.074;17.004;2023-04-25T05:32:01;2.20;;;0.55;;
39750;SDS011;37579;51.074;17.004;2023-04-25T05:34:28;1.85;;;0.50;;
39750;SDS011;37579;51.074;17.004;2023-04-25T05:36:57;0.60;;;0.45;;
39750;SDS011;37579;51.074;17.004;2023-04-25T05:39:23;2.03;;;0.47;;
39750;SDS011;37579;51.074;17.004;2023-04-25T05:42:06;0.83;;;0.50;;
39750;SDS011;37579;51.074;17.004;2023-04-25T05:44:50;0.73;;;0.50;;
39750;SDS011;37579;51.074;17.004;2023-04-25T05:47:55;0.95;;;0.47;;
39750;SDS011;37579;51.074;17.004;2023-04-25T05:50:28;1.60;;;0.65;;
39750;SDS011;37579;51.074;17.004;2023-04-25T05:53:18;1.48;;;0.40;;
39750;SDS011;37579;51.074;17.004;2023-04-25T05:55:51;0.73;;;0.28;;
39750;SDS011;37579;51.074;17.004;2023-04-25T05:58:22;0.82;;;0.52;;
39750;SDS011;37579;51.074;17.004;2023-04-25T06:00:48;0.90;;;0.40;;
39750;SDS011;37579;51.074;17.004;2023-04-25T06:03:15;0.80;;;0.50;;
39750;SDS011;37579;51.074;17.004;2023-04-25T06:05:41;0.85;;;0.40;;
39750;SDS011;37579;51.074;17.004;2023-04-25T06:08:08;0.90;;;0.57;;
39750;SDS011;37579;51.074;17.004;2023-04-25T06:10:36;0.85;;;0.65;;
39750;SDS011;37579;51.074;17.004;2023-04-25T06:13:02;0.73;;;0.30;;
39750;SDS011;37579;51.074;17.004;2023-04-25T06:15:30;3.85;;;0.68;;
39750;SDS011;37579;51.074;17.004;2023-04-25T06:17:59;2.88;;;0.68;;
39750;SDS011;37579;51.074;17.004;2023-04-25T06:20:24;1.88;;;0.50;;
39750;SDS011;37579;51.074;17.004;2023-04-25T06:22:51;3.20;;;0.63;;
39750;SDS011;37579;51.074;17.004;2023-04-25T06:25:18;1.10;;;0.73;;
39750;SDS011;37579;51.074;17.004;2023-04-25T06:27:45;1.30;;;0.60;;
39750;SDS011;37579;51.074;17.004;2023-04-25T06:30:12;3.25;;;0.80;;
39750;SDS011;37579;51.074;17.004;2023-04-25T06:32:38;5.65;;;1.00;;
39750;SDS011;37579;51.074;17.004;2023-04-25T06:35:04;1.52;;;0.50;;
39750;SDS011;37579;51.074;17.004;2023-04-25T06:37:32;1.80;;;0.60;;
39750;SDS011;37579;51.074;17.004;2023-04-25T06:39:58;1.92;;;0.50;;
39750;SDS011;37579;51.074;17.004;2023-04-25T06:42:24;4.43;;;1.63;;
39750;SDS011;37579;51.074;17.004;2023-04-25T06:44:56;1.90;;;0.52;;
39750;SDS011;37579;51.074;17.004;2023-04-25T06:47:22;1.27;;;0.63;;
39750;SDS011;37579;51.074;17.004;2023-04-25T06:49:49;2.33;;;0.70;;
39750;SDS011;37579;51.074;17.004;2023-04-25T06:52:15;1.95;;;0.95;;
39750;SDS011;37579;51.074;17.004;2023-04-25T06:54:43;3.25;;;1.05;;
39750;SDS011;37579;51.074;17.004;2023-04-25T06:57:23;1.75;;;0.90;;
39750;SDS011;37579;51.074;17.004;2023-04-25T06:59:49;3.42;;;0.60;;
39750;SDS011;37579;51.074;17.004;2023-04-25T07:02:15;1.02;;;0.50;;
39750;SDS011;37579;51.074;17.004;2023-04-25T07:04:41;2.30;;;0.77;;
39750;SDS011;37579;51.074;17.004;2023-04-25T07:07:08;1.75;;;0.93;;
39750;SDS011;37579;51.074;17.004;2023-04-25T07:09:52;2.78;;;1.13;;
39750;SDS011;37579;51.074;17.004;2023-04-25T07:12:19;5.30;;;2.00;;
39750;SDS011;37579;51.074;17.004;2023-04-25T07:14:45;7.47;;;2.47;;
39750;SDS011;37579;51.074;17.004;2023-04-25T07:17:11;5.55;;;2.90;;
39750;SDS011;37579;51.074;17.004;2023-04-25T07:19:38;6.72;;;2.50;;
39750;SDS011;37579;51.074;17.004;2023-04-25T07:22:05;6.57;;;2.90;;
39750;SDS011;37579;51.074;17.004;2023-04-25T07:24:33;7.13;;;2.47;;
39750;SDS011;37579;51.074;17.004;2023-04-25T07:26:59;5.30;;;2.47;;
39750;SDS011;37579;51.074;17.004;2023-04-25T07:29:34;4.75;;;2.38;;
39750;SDS011;37579;51.074;17.004;2023-04-25T07:32:02;5.00;;;2.40;;
39750;SDS011;37579;51.074;17.004;2023-04-25T07:34:28;5.10;;;2.17;;
39750;SDS011;37579;51.074;17.004;2023-04-25T07:36:55;5.68;;;2.50;;
39750;SDS011;37579;51.074;17.004;2023-04-25T07:39:23;6.55;;;2.35;;
39750;SDS011;37579;51.074;17.004;2023-04-25T07:41:49;2.90;;;1.88;;
39750;SDS011;37579;51.074;17.004;2023-04-25T07:44:21;5.40;;;2.40;;
39750;SDS011;37579;51.074;17.004;2023-04-25T07:46:47;5.03;;;2.60;;
39750;SDS011;37579;51.074;17.004;2023-04-25T07:49:12;4.68;;;2.15;;
39750;SDS011;37579;51.074;17.004;2023-04-25T07:51:40;4.95;;;2.47;;
39750;SDS011;37579;51.074;17.004;2023-04-25T07:54:12;5.50;;;1.95;;
39750;SDS011;37579;51.074;17.004;2023-04-25T07:56:43;5.40;;;1.98;;
39750;SDS011;37579;51.074;17.004;2023-04-25T07:59:09;5.13;;;2.30;;
39750;SDS011;37579;51.074;17.004;2023-04-25T08:01:35;4.75;;;1.92;;
39750;SDS011;37579;51.074;17.004;2023-04-25T08:04:04;5.68;;;2.30;;
39750;SDS011;37579;51.074;17.004;2023-04-25T08:06:42;3.88;;;2.10;;
39750;SDS011;37579;51.074;17.004;2023-04-25T08:09:16;3.20;;;1.98;;
39750;SDS011;37579;51.074;17.004;2023-04-25T08:11:42;8.38;;;2.33;;
39750;SDS011;37579;51.074;17.004;2023-04-25T08:14:11;4.75;;;2.20;;
39750;SDS011;37579;51.074;17.004;2023-04-25T08:16:38;3.63;;;1.85;;
39750;SDS011;37579;51.074;17.004;2023-04-25T08:19:05;2.38;;;1.40;;
39750;SDS011;37579;51.074;17.004;2023-04-25T08:21:31;5.55;;;1.80;;
39750;SDS011;37579;51.074;17.004;2023-04-25T08:24:01;4.22;;;1.80;;
39750;SDS011;37579;51.074;17.004;2023-04-25T08:26:31;3.97;;;1.95;;
39750;SDS011;37579;51.074;17.004;2023-04-25T08:28:57;4.32;;;1.75;;
39750;SDS011;37579;51.074;17.004;2023-04-25T08:31:23;4.20;;;1.77;;
39750;SDS011;37579;51.074;17.004;2023-04-25T08:33:58;4.90;;;1.77;;
39750;SDS011;37579;51.074;17.004;2023-04-25T08:36:32;4.65;;;1.60;;
39750;SDS011;37579;51.074;17.004;2023-04-25T08:38:58;3.90;;;1.38;;
39750;SDS011;37579;51.074;17.004;2023-04-25T08:41:24;3.78;;;1.67;;
39750;SDS011;37579;51.074;17.004;2023-04-25T08:43:51;5.05;;;2.10;;
39750;SDS011;37579;51.074;17.004;2023-04-25T08:46:22;3.38;;;1.50;;
39750;SDS011;37579;51.074;17.004;2023-04-25T08:49:07;4.45;;;1.38;;
39750;SDS011;37579;51.074;17.004;2023-04-25T08:51:34;3.88;;;1.55;;
39750;SDS011;37579;51.074;17.004;2023-04-25T08:54:09;2.45;;;1.35;;
39750;SDS011;37579;51.074;17.004;2023-04-25T08:56:41;3.50;;;1.63;;
39750;SDS011;37579;51.074;17.004;2023-04-25T08:59:11;4.28;;;1.58;;
39750;SDS011;37579;51.074;17.004;2023-04-25T09:01:37;3.45;;;1.38;;
39750;SDS011;37579;51.074;17.004;2023-04-25T09:04:03;3.70;;;1.42;;
39750;SDS011;37579;51.074;17.004;2023-04-25T09:06:29;3.17;;;1.45;;
39750;SDS011;37579;51.074;17.004;2023-04-25T09:09:05;3.38;;;1.40;;
39750;SDS011;37579;51.074;17.004;2023-04-25T09:11:33;4.72;;;1.90;;
39750;SDS011;37579;51.074;17.004;2023-04-25T09:14:14;4.82;;;1.60;;
39750;SDS011;37579;51.074;17.004;2023-04-25T09:17:17;4.18;;;1.38;;
39750;SDS011;37579;51.074;17.004;2023-04-25T09:19:46;3.47;;;1.50;;
39750;SDS011;37579;51.074;17.004;2023-04-25T09:22:20;2.67;;;1.38;;
39750;SDS011;37579;51.074;17.004;2023-04-25T09:24:47;2.75;;;1.75;;
39750;SDS011;37579;51.074;17.004;2023-04-25T09:27:20;3.78;;;1.40;;
39750;SDS011;37579;51.074;17.004;2023-04-25T09:30:01;5.22;;;1.40;;
39750;SDS011;37579;51.074;17.004;2023-04-25T09:32:44;5.05;;;1.90;;
39750;SDS011;37579;51.074;17.004;2023-04-25T09:35:10;3.08;;;1.25;;
39750;SDS011;37579;51.074;17.004;2023-04-25T09:37:49;2.47;;;1.45;;
39750;SDS011;37579;51.074;17.004;2023-04-25T09:40:39;3.58;;;1.40;;
39750;SDS011;37579;51.074;17.004;2023-04-25T09:43:40;2.50;;;1.45;;
39750;SDS011;37579;51.074;17.004;2023-04-25T09:46:11;4.28;;;1.20;;
39750;SDS011;37579;51.074;17.004;2023-04-25T09:48:52;5.50;;;1.42;;
39750;SDS011;37579;51.074;17.004;2023-04-25T09:51:26;3.65;;;1.92;;
39750;SDS011;37579;51.074;17.004;2023-04-25T09:53:53;4.35;;;1.40;;
39750;SDS011;37579;51.074;17.004;2023-04-25T09:56:29;3.67;;;1.90;;
39750;SDS011;37579;51.074;17.004;2023-04-25T09:59:03;3.78;;;1.67;;
39750;SDS011;37579;51.074;17.004;2023-04-25T10:01:32;3.88;;;1.95;;
39750;SDS011;37579;51.074;17.004;2023-04-25T10:04:09;9.02;;;3.05;;
39750;SDS011;37579;51.074;17.004;2023-04-25T10:06:46;8.35;;;3.15;;
39750;SDS011;37579;51.074;17.004;2023-04-25T10:09:16;4.25;;;2.72;;
39750;SDS011;37579;51.074;17.004;2023-04-25T10:11:44;9.32;;;3.10;;
39750;SDS011;37579;51.074;17.004;2023-04-25T10:14:13;4.85;;;3.40;;
39750;SDS011;37579;51.074;17.004;2023-04-25T10:16:40;5.40;;;2.53;;
39750;SDS011;37579;51.074;17.004;2023-04-25T10:19:07;5.22;;;2.25;;
39750;SDS011;37579;51.074;17.004;2023-04-25T10:21:34;4.95;;;1.83;;
39750;SDS011;37579;51.074;17.004;2023-04-25T10:24:05;5.70;;;1.50;;
39750;SDS011;37579;51.074;17.004;2023-04-25T10:26:31;3.72;;;1.80;;
39750;SDS011;37579;51.074;17.004;2023-04-25T10:28:58;2.88;;;1.73;;
39750;SDS011;37579;51.074;17.004;2023-04-25T10:31:29;3.92;;;1.73;;
39750;SDS011;37579;51.074;17.004;2023-04-25T10:33:55;4.70;;;1.73;;
39750;SDS011;37579;51.074;17.004;2023-04-25T10:36:22;5.57;;;1.98;;
39750;SDS011;37579;51.074;17.004;2023-04-25T10:38:49;5.43;;;1.67;;
39750;SDS011;37579;51.074;17.004;2023-04-25T10:41:17;4.75;;;1.70;;
39750;SDS011;37579;51.074;17.004;2023-04-25T10:43:44;3.30;;;1.25;;
39750;SDS011;37579;51.074;17.004;2023-04-25T10:46:24;4.43;;;1.70;;
39750;SDS011;37579;51.074;17.004;2023-04-25T10:51:28;2.72;;;1.35;;
39750;SDS011;37579;51.074;17.004;2023-04-25T10:53:56;2.45;;;1.20;;
39750;SDS011;37579;51.074;17.004;2023-04-25T10:56:28;4.53;;;1.40;;
39750;SDS011;37579;51.074;17.004;2023-04-25T10:59:09;9.40;;;1.90;;
39750;SDS011;37579;51.074;17.004;2023-04-25T11:01:40;6.93;;;1.75;;
39750;SDS011;37579;51.074;17.004;2023-04-25T11:04:20;3.60;;;1.65;;
39750;SDS011;37579;51.074;17.004;2023-04-25T11:09:39;4.65;;;1.73;;
39750;SDS011;37579;51.074;17.004;2023-04-25T11:12:07;2.70;;;1.55;;
39750;SDS011;37579;51.074;17.004;2023-04-25T11:14:35;3.55;;;1.48;;
39750;SDS011;37579;51.074;17.004;2023-04-25T11:17:01;4.03;;;1.33;;
39750;SDS011;37579;51.074;17.004;2023-04-25T11:19:27;3.97;;;1.30;;
39750;SDS011;37579;51.074;17.004;2023-04-25T11:21:55;5.57;;;2.30;;
39750;SDS011;37579;51.074;17.004;2023-04-25T11:24:35;4.97;;;2.47;;
39750;SDS011;37579;51.074;17.004;2023-04-25T11:27:02;5.72;;;1.55;;
39750;SDS011;37579;51.074;17.004;2023-04-25T11:29:29;2.75;;;1.42;;
39750;SDS011;37579;51.074;17.004;2023-04-25T11:31:56;2.17;;;1.08;;
39750;SDS011;37579;51.074;17.004;2023-04-25T11:34:23;3.45;;;1.13;;
39750;SDS011;37579;51.074;17.004;2023-04-25T11:36:55;1.55;;;0.82;;
39750;SDS011;37579;51.074;17.004;2023-04-25T11:39:21;2.92;;;1.33;;
39750;SDS011;37579;51.074;17.004;2023-04-25T11:41:49;3.50;;;1.20;;
39750;SDS011;37579;51.074;17.004;2023-04-25T11:44:16;2.17;;;0.80;;
39750;SDS011;37579;51.074;17.004;2023-04-25T11:46:49;4.70;;;0.90;;
39750;SDS011;37579;51.074;17.004;2023-04-25T11:49:15;4.30;;;1.30;;
39750;SDS011;37579;51.074;17.004;2023-04-25T11:51:46;2.75;;;1.08;;
39750;SDS011;37579;51.074;17.004;2023-04-25T11:54:13;4.13;;;1.10;;
39750;SDS011;37579;51.074;17.004;2023-04-25T11:56:44;2.60;;;1.23;;
39750;SDS011;37579;51.074;17.004;2023-04-25T11:59:10;1.58;;;0.68;;
39750;SDS011;37579;51.074;17.004;2023-04-25T12:01:37;5.20;;;1.15;;
39750;SDS011;37579;51.074;17.004;2023-04-25T12:04:23;2.45;;;1.08;;
39750;SDS011;37579;51.074;17.004;2023-04-25T12:06:51;2.00;;;0.90;;
39750;SDS011;37579;51.074;17.004;2023-04-25T12:09:18;3.65;;;1.10;;
39750;SDS011;37579;51.074;17.004;2023-04-25T12:11:55;2.38;;;1.00;;
39750;SDS011;37579;51.074;17.004;2023-04-25T12:14:27;2.08;;;0.88;;
39750;SDS011;37579;51.074;17.004;2023-04-25T12:16:58;1.60;;;0.90;;
39750;SDS011;37579;51.074;17.004;2023-04-25T12:19:25;3.63;;;1.02;;
39750;SDS011;37579;51.074;17.004;2023-04-25T12:21:52;2.13;;;0.85;;
39750;SDS011;37579;51.074;17.004;2023-04-25T12:24:22;2.30;;;0.98;;
39750;SDS011;37579;51.074;17.004;2023-04-25T12:26:57;3.83;;;1.20;;
39750;SDS011;37579;51.074;17.004;2023-04-25T12:29:25;8.40;;;7.70;;
39750;SDS011;37579;51.074;17.004;2023-04-25T12:31:53;5.35;;;4.95;;
39750;SDS011;37579;51.074;17.004;2023-04-25T12:34:20;4.25;;;2.78;;
39750;SDS011;37579;51.074;17.004;2023-04-25T12:36:47;1.65;;;1.42;;
39750;SDS011;37579;51.074;17.004;2023-04-25T12:39:14;3.08;;;1.58;;
39750;SDS011;37579;51.074;17.004;2023-04-25T12:41:41;3.00;;;1.40;;
39750;SDS011;37579;51.074;17.004;2023-04-25T12:44:07;3.97;;;1.33;;
39750;SDS011;37579;51.074;17.004;2023-04-25T12:46:32;2.05;;;1.17;;
39750;SDS011;37579;51.074;17.004;2023-04-25T12:48:58;3.13;;;1.13;;
39750;SDS011;37579;51.074;17.004;2023-04-25T12:51:25;2.95;;;1.00;;
39750;SDS011;37579;51.074;17.004;2023-04-25T12:53:52;2.30;;;0.90;;
39750;SDS011;37579;51.074;17.004;2023-04-25T12:56:18;1.98;;;0.93;;
39750;SDS011;37579;51.074;17.004;2023-04-25T12:58:45;2.38;;;1.27;;
39750;SDS011;37579;51.074;17.004;2023-04-25T13:01:11;2.67;;;1.02;;
39750;SDS011;37579;51.074;17.004;2023-04-25T13:03:39;1.45;;;1.08;;
39750;SDS011;37579;51.074;17.004;2023-04-25T13:06:05;2.40;;;0.73;;
39750;SDS011;37579;51.074;17.004;2023-04-25T13:08:32;1.85;;;1.23;;
39750;SDS011;37579;51.074;17.004;2023-04-25T13:10:58;3.40;;;1.10;;
39750;SDS011;37579;51.074;17.004;2023-04-25T13:13:23;3.42;;;0.93;;
39750;SDS011;37579;51.074;17.004;2023-04-25T13:15:49;2.13;;;1.13;;
39750;SDS011;37579;51.074;17.004;2023-04-25T13:18:15;1.63;;;0.90;;
39750;SDS011;37579;51.074;17.004;2023-04-25T13:20:41;1.85;;;1.00;;
39750;SDS011;37579;51.074;17.004;2023-04-25T13:23:07;2.28;;;1.00;;
39750;SDS011;37579;51.074;17.004;2023-04-25T13:25:32;1.65;;;0.98;;
39750;SDS011;37579;51.074;17.004;2023-04-25T13:27:59;1.85;;;1.00;;
39750;SDS011;37579;51.074;17.004;2023-04-25T13:30:24;2.58;;;1.13;;
39750;SDS011;37579;51.074;17.004;2023-04-25T13:32:50;1.38;;;0.80;;
39750;SDS011;37579;51.074;17.004;2023-04-25T13:35:17;2.03;;;1.33;;
39750;SDS011;37579;51.074;17.004;2023-04-25T13:37:43;1.60;;;1.00;;
39750;SDS011;37579;51.074;17.004;2023-04-25T13:40:09;3.03;;;1.20;;
39750;SDS011;37579;51.074;17.004;2023-04-25T13:42:36;2.63;;;1.20;;
39750;SDS011;37579;51.074;17.004;2023-04-25T13:45:03;2.95;;;0.80;;
39750;SDS011;37579;51.074;17.004;2023-04-25T13:47:29;2.08;;;0.90;;
39750;SDS011;37579;51.074;17.004;2023-04-25T13:49:55;1.80;;;0.73;;
39750;SDS011;37579;51.074;17.004;2023-04-25T13:52:21;3.15;;;1.15;;
39750;SDS011;37579;51.074;17.004;2023-04-25T13:54:49;4.05;;;1.10;;
39750;SDS011;37579;51.074;17.004;2023-04-25T13:57:16;2.00;;;0.90;;
39750;SDS011;37579;51.074;17.004;2023-04-25T13:59:42;1.15;;;0.80;;
39750;SDS011;37579;51.074;17.004;2023-04-25T14:02:08;1.33;;;0.88;;
39750;SDS011;37579;51.074;17.004;2023-04-25T14:04:34;1.98;;;0.77;;
39750;SDS011;37579;51.074;17.004;2023-04-25T14:07:00;2.47;;;1.10;;
39750;SDS011;37579;51.074;17.004;2023-04-25T14:09:27;2.05;;;0.65;;
39750;SDS011;37579;51.074;17.004;2023-04-25T14:11:54;2.00;;;0.80;;
39750;SDS011;37579;51.074;17.004;2023-04-25T14:14:20;2.22;;;0.90;;
39750;SDS011;37579;51.074;17.004;2023-04-25T14:16:47;1.55;;;0.95;;
39750;SDS011;37579;51.074;17.004;2023-04-25T14:19:14;1.10;;;0.80;;
39750;SDS011;37579;51.074;17.004;2023-04-25T14:21:40;2.65;;;1.10;;
39750;SDS011;37579;51.074;17.004;2023-04-25T14:24:06;2.35;;;1.00;;
39750;SDS011;37579;51.074;17.004;2023-04-25T14:26:35;2.47;;;0.98;;
39750;SDS011;37579;51.074;17.004;2023-04-25T14:29:02;1.30;;;1.00;;
39750;SDS011;37579;51.074;17.004;2023-04-25T14:31:37;1.55;;;0.90;;
39750;SDS011;37579;51.074;17.004;2023-04-25T14:34:04;1.75;;;1.13;;
39750;SDS011;37579;51.074;17.004;2023-04-25T14:36:30;1.42;;;0.90;;
39750;SDS011;37579;51.074;17.004;2023-04-25T14:38:57;1.60;;;0.80;;
39750;SDS011;37579;51.074;17.004;2023-04-25T14:41:24;1.80;;;1.00;;
39750;SDS011;37579;51.074;17.004;2023-04-25T14:43:50;1.77;;;0.90;;
39750;SDS011;37579;51.074;17.004;2023-04-25T14:46:16;1.38;;;0.90;;
39750;SDS011;37579;51.074;17.004;2023-04-25T14:48:42;1.98;;;1.00;;
39750;SDS011;37579;51.074;17.004;2023-04-25T14:51:08;1.63;;;0.80;;
39750;SDS011;37579;51.074;17.004;2023-04-25T14:53:33;1.33;;;0.80;;
39750;SDS011;37579;51.074;17.004;2023-04-25T14:55:59;2.10;;;0.88;;